Marigola — IBEL — position and weather

sailwx.info

Track history (hours):
 
Tides and Currents Weather Stations Pressure Air Temp Water Temp Dewpoint Dewpoint Depression Visibility Wind Speed Wind Dir Waves Ship Positions

Marigola

Last reported at 2015-Aug-23 07:13 UTC. Time now 2015-Sep-05 01:12 UTC.
Position N 29°21' W 094°47'.
Warning: this ship's position is 12 days out of date.

Length 145 m; draft 9 m.

Type: Ship (hazmat cat A). MMSI: 247567000.

Date/timePositionNaut miles runAvg speedWind from/ knotsBaromVisibWave heightAir tempDewpointWater temp
2015-Aug-23 07:13N 29°21' W 094°47'710.3
2015-Aug-23 06:33N 29°27' W 094°51'1111.1
2015-Aug-23 05:33N 29°37' W 094°57'9 9.4
2015-Aug-23 04:33N 29°44' W 095°03'6 6.3
2015-Aug-23 03:33N 29°45' W 095°11'1 0.1
2015-Aug-22 12:09N 29°44' W 095°12'0 0.0
2015-Aug-21 15:33N 29°44' W 095°12'0 0.0
2015-Aug-21 07:30N 29°44' W 095°12'0 0.0
2015-Aug-21 06:30N 29°44' W 095°12'0 0.0
2015-Aug-21 05:24N 29°44' W 095°12'0 0.0
2015-Aug-21 04:12N 29°44' W 095°12'0 0.0
2015-Aug-21 03:18N 29°44' W 095°12'0 0.0
2015-Aug-21 01:33N 29°44' W 095°12'0 0.0
2015-Aug-20 23:06N 29°44' W 095°12'0 0.0
2015-Aug-20 22:33N 29°44' W 095°12'0 0.0
2015-Aug-20 04:33N 29°44' W 095°12'3 3.2
2015-Aug-20 03:33N 29°44' W 095°09'6 5.7
2015-Aug-20 02:33N 29°44' W 095°02'10 9.6
2015-Aug-20 01:33N 29°36' W 094°57'1313.0
2015-Aug-20 00:33N 29°24' W 094°49'5 5.1
2015-Aug-19 23:30N 29°21' W 094°44'0 0.0
2015-Aug-19 22:32N 29°21' W 094°44'0 0.1
2015-Aug-19 21:33N 29°21' W 094°44'0 0.0
2015-Aug-19 20:33N 29°21' W 094°44'  
Track history (hours):
 
Tides and Currents Weather Stations Pressure Air Temp Water Temp Dewpoint Dewpoint Depression Visibility Wind Speed Wind Dir Waves Ship Positions

Marigola

Last reported at 2015-Aug-23 07:13 UTC. Time now 2015-Sep-05 01:12 UTC.
Position N 29°21' W 094°47'.
Warning: this ship's position is 12 days out of date.

Length 145 m; draft 9 m.

Type: Ship (hazmat cat A). MMSI: 247567000.

Date/timePositionNaut miles runAvg speedWind from/ knotsBaromVisibWave heightAir tempDewpointWater temp
2015-Aug-23 07:13N 29°21' W 094°47'710.3
2015-Aug-23 06:33N 29°27' W 094°51'1111.1
2015-Aug-23 05:33N 29°37' W 094°57'9 9.4
2015-Aug-23 04:33N 29°44' W 095°03'6 6.3
2015-Aug-23 03:33N 29°45' W 095°11'1 0.1
2015-Aug-22 12:09N 29°44' W 095°12'0 0.0
2015-Aug-21 15:33N 29°44' W 095°12'0 0.0
2015-Aug-21 07:30N 29°44' W 095°12'0 0.0
2015-Aug-21 06:30N 29°44' W 095°12'0 0.0
2015-Aug-21 05:24N 29°44' W 095°12'0 0.0
2015-Aug-21 04:12N 29°44' W 095°12'0 0.0
2015-Aug-21 03:18N 29°44' W 095°12'0 0.0
2015-Aug-21 01:33N 29°44' W 095°12'0 0.0
2015-Aug-20 23:06N 29°44' W 095°12'0 0.0
2015-Aug-20 22:33N 29°44' W 095°12'0 0.0
2015-Aug-20 04:33N 29°44' W 095°12'3 3.2
2015-Aug-20 03:33N 29°44' W 095°09'6 5.7
2015-Aug-20 02:33N 29°44' W 095°02'10 9.6
2015-Aug-20 01:33N 29°36' W 094°57'1313.0
2015-Aug-20 00:33N 29°24' W 094°49'5 5.1
2015-Aug-19 23:30N 29°21' W 094°44'0 0.0
2015-Aug-19 22:32N 29°21' W 094°44'0 0.1
2015-Aug-19 21:33N 29°21' W 094°44'0 0.0
2015-Aug-19 20:33N 29°21' W 094°44'  

Dump ship's entire track history